El Quimilar, Argentina
Current Conditions -  °F | °C
As of 8:00 AM on Monday 20 Oct 2014 (Local Time) from SASJ Reporting Station
Overcast Overcast  
Wind Chill: 17°   Ceiling: 10000
Heat Index: 17°   Visibility: 5mi
Dew Point: 16°   Wind: 3mph
Humidity: 94%   Direction: 160°SSE
Pressure: 30.15"   Gusts: NA
Location:  23.33°S, 64.07°W
Report Text: SASJ 201100Z 16003KT 8000 FEW009 SCT045OVC100 17/16 Q1021
Loading
Personal Weather Stations






























Interactive Weather Map
Tropical Storm Tracking
New forecast layout! Learn more

10-Day Weather Forecast

Advertisements
Track Severe Weather on mobile